createdAt,value
2023-03-11T17:32:08.181Z,1.80
2023-03-11T17:33:08.166Z,2.10
2023-03-11T17:34:08.104Z,1.90
2023-03-11T17:35:08.094Z,2.20
2023-03-11T17:36:08.091Z,1.50
2023-03-11T17:37:08.060Z,1.50
2023-03-11T17:38:08.058Z,1.50
2023-03-11T17:39:08.056Z,1.80
2023-03-11T17:40:08.073Z,1.30
2023-03-11T17:41:08.077Z,1.50
2023-03-11T17:42:08.117Z,1.40
2023-03-11T17:43:08.035Z,1.50
2023-03-11T17:44:08.039Z,1.30
2023-03-11T17:45:08.012Z,1.80
2023-03-11T17:46:07.957Z,1.30
2023-03-11T17:47:08.029Z,1.60
2023-03-11T17:48:07.944Z,1.10
2023-03-11T17:49:07.909Z,1.50
2023-03-11T17:50:07.950Z,1.70
2023-03-11T17:51:07.894Z,1.20
2023-03-11T17:52:07.860Z,1.70
2023-03-11T17:53:07.873Z,1.40
2023-03-11T17:54:07.867Z,1.60
2023-03-11T17:55:07.866Z,2.10
2023-03-11T17:56:07.819Z,2.30
2023-03-11T17:57:07.809Z,2.30
2023-03-11T17:58:07.784Z,1.80
2023-03-11T17:59:07.802Z,2.20
2023-03-11T18:00:07.759Z,2.20
2023-03-11T18:01:07.749Z,2.40
2023-03-11T18:02:07.798Z,2.20
2023-03-11T18:03:07.727Z,2.40
2023-03-11T18:04:07.736Z,2.40
2023-03-11T18:05:07.752Z,2.20
2023-03-11T18:06:07.695Z,2.20
2023-03-11T18:07:07.767Z,2.50
2023-03-11T18:08:07.677Z,2.30
2023-03-11T18:09:07.763Z,2.10
2023-03-11T18:10:07.630Z,2.40
2023-03-11T18:11:07.777Z,2.10
2023-03-11T18:12:07.700Z,2.20
2023-03-11T18:13:07.713Z,2.30
2023-03-11T18:14:07.624Z,2.40
2023-03-11T18:15:08.330Z,2.00
2023-03-11T18:16:07.634Z,2.10
2023-03-11T18:17:07.625Z,2.70
2023-03-11T18:18:07.541Z,3.00
2023-03-11T18:19:07.511Z,2.80
2023-03-11T18:20:07.589Z,2.70
2023-03-11T18:21:07.575Z,2.40
2023-03-11T18:22:07.470Z,2.40
2023-03-11T18:23:07.476Z,2.30
2023-03-11T18:24:07.486Z,2.50
2023-03-11T18:25:07.419Z,3.20
2023-03-11T18:26:07.422Z,2.40
2023-03-11T18:27:08.633Z,2.60
2023-03-11T18:28:07.472Z,2.50
2023-03-11T18:29:07.574Z,2.80
2023-03-11T18:30:07.432Z,2.60
2023-03-11T18:31:07.408Z,2.20
2023-03-11T18:32:07.391Z,2.70
2023-03-11T18:33:07.355Z,2.20
2023-03-11T18:34:07.353Z,2.40
2023-03-11T18:35:07.338Z,2.50
2023-03-11T18:36:07.390Z,2.90
2023-03-11T18:37:07.271Z,2.80
2023-03-11T18:38:07.248Z,2.40
2023-03-11T18:39:07.279Z,2.40
2023-03-11T18:40:07.228Z,2.10
2023-03-11T18:41:07.217Z,2.80
2023-03-11T18:42:07.204Z,2.80
2023-03-11T18:43:07.177Z,2.30
2023-03-11T18:44:07.193Z,2.30
2023-03-11T18:45:07.174Z,2.40
2023-03-11T18:46:07.207Z,2.80
2023-03-11T18:47:07.132Z,2.50
2023-03-11T18:48:07.120Z,2.10
2023-03-11T18:49:07.158Z,2.10
2023-03-11T18:50:07.080Z,2.50
2023-03-11T18:51:07.122Z,2.00
2023-03-11T18:52:07.066Z,2.30
2023-03-11T18:53:07.077Z,2.30
2023-03-11T18:54:07.056Z,2.50
2023-03-11T18:55:07.033Z,2.20
2023-03-11T18:56:07.042Z,2.20
2023-03-11T18:57:07.023Z,2.40
2023-03-11T18:58:07.051Z,2.40
2023-03-11T18:59:06.996Z,2.20
2023-03-11T19:00:06.941Z,3.10
2023-03-11T19:01:06.970Z,2.50
2023-03-11T19:02:06.938Z,2.90
2023-03-11T19:03:06.974Z,2.40
2023-03-11T19:04:06.932Z,2.90
2023-03-11T19:05:06.911Z,2.70
2023-03-11T19:06:06.888Z,2.90
2023-03-11T19:07:06.871Z,3.00
2023-03-11T19:08:06.857Z,2.90
2023-03-11T19:09:06.863Z,2.90
2023-03-11T19:10:06.845Z,3.20
2023-03-11T19:11:06.836Z,3.40
2023-03-11T19:12:06.814Z,3.40
2023-03-11T19:13:06.826Z,3.50
2023-03-11T19:14:06.793Z,3.60
2023-03-11T19:15:06.775Z,3.40
2023-03-11T19:16:06.787Z,4.00
2023-03-11T19:17:06.771Z,4.00
2023-03-11T19:18:07.566Z,3.70
2023-03-11T19:19:06.769Z,3.90
2023-03-11T19:20:06.744Z,4.40
2023-03-11T19:21:06.698Z,4.30
2023-03-11T19:22:06.701Z,3.80
2023-03-11T19:23:06.702Z,3.70
2023-03-11T19:24:06.681Z,4.10
2023-03-11T19:25:06.845Z,3.80
2023-03-11T19:26:06.633Z,4.10
2023-03-11T19:27:06.690Z,4.50
2023-03-11T19:28:06.645Z,5.00
2023-03-11T19:29:06.698Z,4.70
2023-03-11T19:30:06.575Z,4.70
2023-03-11T19:31:06.636Z,4.60
2023-03-11T19:32:06.602Z,4.90
2023-03-11T19:33:06.545Z,5.40
2023-03-11T19:34:06.550Z,4.70
2023-03-11T19:35:06.565Z,5.50
2023-03-11T19:36:06.552Z,4.20
2023-03-11T19:37:06.534Z,4.50
2023-03-11T19:38:06.473Z,4.60
2023-03-11T19:39:06.511Z,4.60
2023-03-11T19:40:06.466Z,4.60
2023-03-11T19:41:06.499Z,4.60
2023-03-11T19:42:06.460Z,5.30
2023-03-11T19:43:06.447Z,4.30
2023-03-11T19:44:06.450Z,4.40
2023-03-11T19:45:06.409Z,4.80
2023-03-11T19:46:06.420Z,4.40
2023-03-11T19:47:06.428Z,4.90
2023-03-11T19:48:06.395Z,5.00
2023-03-11T19:49:06.362Z,4.10
2023-03-11T19:50:06.358Z,5.00
2023-03-11T19:51:06.339Z,4.70
2023-03-11T19:52:06.340Z,5.00
2023-03-11T19:53:06.342Z,4.40
2023-03-11T19:54:06.295Z,5.20
2023-03-11T19:55:06.306Z,4.70
2023-03-11T19:56:06.261Z,4.80
2023-03-11T19:57:06.259Z,5.40
2023-03-11T19:58:06.253Z,4.70
2023-03-11T19:59:06.245Z,5.30
2023-03-11T20:00:09.385Z,4.50
2023-03-11T20:01:06.245Z,4.50
2023-03-11T20:02:06.257Z,4.20
2023-03-11T20:03:06.205Z,4.60
2023-03-11T20:04:06.241Z,5.00
2023-03-11T20:05:06.281Z,5.20
2023-03-11T20:06:06.213Z,4.80
2023-03-11T20:07:06.130Z,4.90
2023-03-11T20:08:06.219Z,4.90
2023-03-11T20:09:06.143Z,4.80
2023-03-11T20:10:06.098Z,5.20
2023-03-11T20:11:06.081Z,5.00
2023-03-11T20:12:06.131Z,5.60
2023-03-11T20:13:06.048Z,5.60
2023-03-11T20:14:06.053Z,4.90
2023-03-11T20:15:06.004Z,5.00
2023-03-11T20:16:06.088Z,5.10
2023-03-11T20:17:06.073Z,4.90
2023-03-11T20:18:06.039Z,5.90
2023-03-11T20:19:06.049Z,5.60
2023-03-11T20:20:06.095Z,5.90
2023-03-11T20:21:05.953Z,6.60
2023-03-11T20:22:05.969Z,7.50
2023-03-11T20:23:06.217Z,6.30
2023-03-11T20:24:05.920Z,7.10
2023-03-11T20:25:05.897Z,6.80
2023-03-11T20:26:05.865Z,6.20
2023-03-11T20:27:05.975Z,7.00
2023-03-11T20:28:05.840Z,6.30
2023-03-11T20:29:05.988Z,6.60
2023-03-11T20:30:05.840Z,7.30
2023-03-11T20:31:05.946Z,6.70
2023-03-11T20:32:05.845Z,6.20
2023-03-11T20:33:05.952Z,6.20
2023-03-11T20:34:05.875Z,6.00
2023-03-11T20:35:05.867Z,5.90
2023-03-11T20:36:05.901Z,5.80
2023-03-11T20:37:05.775Z,6.00
2023-03-11T20:38:05.796Z,6.10
2023-03-11T20:39:07.887Z,5.50
2023-03-11T20:40:05.870Z,6.10
2023-03-11T20:41:05.855Z,5.70
2023-03-11T20:42:05.796Z,5.70
2023-03-11T20:43:05.673Z,6.00
2023-03-11T20:44:05.712Z,5.90
2023-03-11T20:45:05.673Z,5.60
2023-03-11T20:46:05.719Z,5.90
2023-03-11T20:47:05.693Z,5.60
2023-03-11T20:48:05.635Z,5.70
2023-03-11T20:49:05.660Z,5.50
2023-03-11T20:50:05.653Z,5.40
2023-03-11T20:51:05.686Z,5.40
2023-03-11T20:52:05.558Z,5.90
2023-03-11T20:53:05.668Z,5.40
2023-03-11T20:54:05.563Z,5.90
2023-03-11T20:55:05.574Z,5.30
2023-03-11T20:56:05.604Z,5.50
2023-03-11T20:57:05.485Z,5.10
2023-03-11T20:58:05.572Z,5.70
2023-03-11T20:59:07.540Z,4.90
2023-03-11T21:00:05.469Z,5.60
2023-03-11T21:01:05.461Z,5.50
2023-03-11T21:02:05.489Z,5.70
2023-03-11T21:03:05.568Z,6.00
2023-03-11T21:04:05.646Z,5.30
2023-03-11T21:05:05.393Z,5.10
2023-03-11T21:06:05.416Z,5.20
2023-03-11T21:07:05.488Z,5.40
2023-03-11T21:08:05.462Z,5.20
2023-03-11T21:09:05.336Z,6.10
2023-03-11T21:10:05.387Z,5.50
2023-03-11T21:11:05.419Z,5.50
2023-03-11T21:12:05.385Z,6.20
2023-03-11T21:13:05.344Z,5.80
2023-03-11T21:14:05.305Z,5.80
2023-03-11T21:15:05.374Z,5.60
2023-03-11T21:16:05.274Z,5.90
2023-03-11T21:17:05.401Z,5.50
2023-03-11T21:18:05.415Z,6.10
2023-03-11T21:19:05.417Z,5.50
2023-03-11T21:20:05.277Z,5.50
2023-03-11T21:21:05.256Z,5.30
2023-03-11T21:22:05.292Z,5.70
2023-03-11T21:23:05.173Z,5.70
2023-03-11T21:24:05.134Z,6.40
2023-03-11T21:25:08.341Z,6.50
2023-03-11T21:26:05.094Z,5.70
2023-03-11T21:27:05.275Z,5.20
2023-03-11T21:28:05.102Z,5.80
2023-03-11T21:29:05.144Z,5.80
2023-03-11T21:30:05.061Z,5.10
2023-03-11T21:31:05.341Z,5.90
2023-03-11T21:32:05.092Z,5.60
2023-03-11T21:33:05.213Z,5.30
2023-03-11T21:34:05.047Z,5.50
2023-03-11T21:35:05.143Z,5.70
2023-03-11T21:36:05.082Z,5.60
2023-03-11T21:37:05.100Z,5.60
2023-03-11T21:38:05.019Z,5.60
2023-03-11T21:39:05.030Z,5.40
2023-03-11T21:40:04.959Z,5.50
2023-03-11T21:41:04.916Z,6.70
2023-03-11T21:42:05.044Z,5.60
2023-03-11T21:43:04.911Z,5.20
2023-03-11T21:44:04.874Z,5.40
2023-03-11T21:45:04.887Z,5.70
2023-03-11T21:46:04.908Z,5.60
2023-03-11T21:47:04.975Z,6.20
2023-03-11T21:48:04.882Z,5.30
2023-03-11T21:49:04.886Z,5.30
2023-03-11T21:50:04.804Z,5.40
2023-03-11T21:51:04.849Z,5.50
2023-03-11T21:52:04.770Z,4.80
2023-03-11T21:53:04.745Z,5.90
2023-03-11T21:54:04.772Z,5.70
2023-03-11T21:55:04.727Z,5.20
2023-03-11T21:56:04.745Z,5.50
2023-03-11T21:57:04.774Z,5.60
2023-03-11T21:58:04.756Z,4.80
2023-03-11T21:59:04.850Z,5.40
2023-03-11T22:00:04.730Z,5.00
2023-03-11T22:01:04.863Z,5.10
2023-03-11T22:02:04.872Z,5.00
2023-03-11T22:03:04.757Z,5.10
2023-03-11T22:04:04.773Z,5.10
2023-03-11T22:05:04.722Z,5.20
2023-03-11T22:06:04.601Z,5.10
2023-03-11T22:07:04.654Z,4.70
2023-03-11T22:08:04.610Z,5.20
2023-03-11T22:09:04.627Z,5.00
2023-03-11T22:10:04.573Z,4.60
2023-03-11T22:11:04.553Z,5.10
2023-03-11T22:12:04.516Z,5.10
2023-03-11T22:13:04.612Z,4.80
2023-03-11T22:14:04.570Z,4.90
2023-03-11T22:15:04.483Z,4.80
2023-03-11T22:16:05.192Z,5.00
2023-03-11T22:17:04.571Z,5.00
2023-03-11T22:18:04.634Z,5.50
2023-03-11T22:19:04.552Z,4.90
2023-03-11T22:20:04.464Z,5.20
2023-03-11T22:21:04.490Z,4.90
2023-03-11T22:22:04.403Z,5.30
2023-03-11T22:23:04.369Z,5.60
2023-03-11T22:24:04.356Z,4.60
2023-03-11T22:25:04.328Z,4.90
2023-03-11T22:26:04.319Z,4.60
2023-03-11T22:27:04.340Z,5.50
2023-03-11T22:28:04.278Z,4.40
2023-03-11T22:29:04.789Z,4.20
2023-03-11T22:30:04.288Z,4.00
2023-03-11T22:31:04.260Z,5.20
2023-03-11T22:32:04.301Z,5.00
2023-03-11T22:33:04.238Z,4.70
2023-03-11T22:34:04.237Z,4.70
2023-03-11T22:35:04.197Z,4.80
2023-03-11T22:36:04.258Z,4.40
2023-03-11T22:37:04.189Z,4.80
2023-03-11T22:38:04.167Z,4.80
2023-03-11T22:39:04.255Z,4.70
2023-03-11T22:40:04.186Z,4.70
2023-03-11T22:41:04.116Z,4.50
2023-03-11T22:42:04.153Z,4.10
2023-03-11T22:43:04.095Z,4.60
2023-03-11T22:44:04.088Z,4.90
2023-03-11T22:45:04.084Z,4.70
2023-03-11T22:46:04.290Z,4.20
2023-03-11T22:47:04.052Z,4.10
2023-03-11T22:48:04.053Z,4.50
2023-03-11T22:49:04.120Z,4.20
2023-03-11T22:50:04.041Z,4.90
2023-03-11T22:51:04.005Z,4.90
2023-03-11T22:52:04.020Z,4.40
2023-03-11T22:53:04.007Z,3.90
2023-03-11T22:54:03.977Z,3.90
2023-03-11T22:55:03.969Z,4.40
2023-03-11T22:56:03.953Z,4.40
2023-03-11T22:57:03.930Z,4.10
2023-03-11T22:58:03.938Z,4.30
2023-03-11T22:59:33.244Z,4.10
2023-03-11T23:00:33.219Z,4.00
2023-03-11T23:01:33.209Z,4.00
2023-03-11T23:02:33.155Z,4.50
2023-03-11T23:03:33.316Z,4.00
2023-03-11T23:04:33.154Z,3.90
2023-03-11T23:05:33.169Z,3.80
2023-03-11T23:06:33.153Z,4.20
2023-03-11T23:07:33.104Z,4.10
2023-03-11T23:08:33.083Z,4.60
2023-03-11T23:09:33.061Z,3.90
2023-03-11T23:10:33.052Z,4.00
2023-03-11T23:11:33.059Z,4.20
2023-03-11T23:12:33.022Z,4.00
2023-03-11T23:13:33.027Z,4.20
2023-03-11T23:14:44.193Z,4.60
2023-03-11T23:15:33.994Z,4.00
2023-03-11T23:16:33.089Z,4.40
2023-03-11T23:17:33.029Z,4.40
2023-03-11T23:18:32.987Z,4.20
2023-03-11T23:19:33.004Z,4.10
2023-03-11T23:20:33.004Z,4.50
2023-03-11T23:21:33.068Z,3.60
2023-03-11T23:22:32.923Z,3.80
2023-03-11T23:23:32.913Z,3.90
2023-03-11T23:24:32.890Z,4.30
2023-03-11T23:25:32.882Z,4.10
2023-03-11T23:26:32.854Z,3.60
2023-03-11T23:27:32.835Z,4.00
2023-03-11T23:28:32.816Z,4.10
2023-03-11T23:29:32.877Z,3.70
2023-03-11T23:30:32.908Z,4.20
2023-03-11T23:31:32.777Z,4.10
2023-03-11T23:32:32.916Z,4.50
2023-03-11T23:33:32.756Z,4.40
2023-03-11T23:34:32.746Z,4.10
2023-03-11T23:35:32.871Z,3.90
2023-03-11T23:36:32.721Z,4.20
2023-03-11T23:37:32.694Z,4.10
2023-03-11T23:38:32.697Z,4.40
2023-03-11T23:39:32.668Z,4.40
2023-03-11T23:40:32.660Z,3.90
2023-03-11T23:41:32.691Z,4.10
2023-03-11T23:42:32.667Z,3.80
2023-03-11T23:43:32.656Z,4.30
2023-03-11T23:44:32.619Z,4.20
2023-03-11T23:45:32.610Z,4.10
2023-03-11T23:46:32.651Z,3.90
2023-03-11T23:47:32.570Z,4.50
2023-03-11T23:48:32.595Z,3.80
2023-03-11T23:49:32.554Z,4.00
2023-03-11T23:50:32.544Z,4.10
2023-03-11T23:51:32.527Z,4.40
2023-03-11T23:52:32.512Z,4.20
2023-03-11T23:53:32.665Z,4.50
2023-03-11T23:54:32.522Z,3.90
2023-03-11T23:55:32.498Z,4.00
2023-03-11T23:56:32.453Z,3.90
2023-03-11T23:57:32.447Z,4.00
2023-03-11T23:58:32.477Z,3.60
2023-03-11T23:59:32.463Z,3.90
